Time,TemperatureF,DewpointF,PressureIn,WindDirection,WindDirectionDegrees,WindSpeedMPH,WindSpeedGustMPH,Humidity,HourlyPrecipIn,Conditions,Clouds,dailyrainin,SolarRadiationWatts/m^2,SoftwareType,DateUTC
2013-08-25 00:02:00,63.5,49.0,30.39,West,263,1.0,4.0,59,0.00,,,0.00,0,weatherlink.com 1.10,2013-08-25 04:02:00,
2013-08-25 00:17:00,63.1,49.0,30.39,West,268,1.0,3.0,61,0.00,,,0.00,0,weatherlink.com 1.10,2013-08-25 04:17:00,
2013-08-25 00:32:00,63.4,50.0,30.39,West,273,2.0,6.0,62,0.00,,,0.00,0,weatherlink.com 1.10,2013-08-25 04:32:00,
2013-08-25 00:47:00,63.4,50.0,30.38,West,265,1.0,3.0,63,0.00,,,0.00,0,weatherlink.com 1.10,2013-08-25 04:47:00,
2013-08-25 01:02:00,63.1,51.0,30.38,West,265,1.0,2.0,64,0.00,,,0.00,0,weatherlink.com 1.10,2013-08-25 05:02:00,
2013-08-25 01:17:00,62.1,51.0,30.37,SW,225,0.0,3.0,66,0.00,,,0.00,0,weatherlink.com 1.10,2013-08-25 05:17:00,
2013-08-25 01:32:00,61.4,51.0,30.38,SW,224,0.0,1.0,68,0.00,,,0.00,0,weatherlink.com 1.10,2013-08-25 05:32:00,
2013-08-25 01:48:00,61.0,51.0,30.37,SW,224,0.0,2.0,70,0.00,,,0.00,0,weatherlink.com 1.10,2013-08-25 05:48:00,
2013-08-25 02:03:00,60.7,51.0,30.37,SW,224,0.0,1.0,71,0.00,,,0.00,0,weatherlink.com 1.10,2013-08-25 06:03:00,
2013-08-25 02:18:00,60.2,51.0,30.36,SW,225,0.0,0.0,72,0.00,,,0.00,0,weatherlink.com 1.10,2013-08-25 06:18:00,
2013-08-25 02:33:00,59.7,52.0,30.36,SW,224,0.0,0.0,75,0.00,,,0.00,0,weatherlink.com 1.10,2013-08-25 06:33:00,
2013-08-25 02:48:00,59.6,52.0,30.36,SW,225,0.0,2.0,75,0.00,,,0.00,0,weatherlink.com 1.10,2013-08-25 06:48:00,
2013-08-25 03:03:00,59.4,52.0,30.36,SW,224,1.0,2.0,76,0.00,,,0.00,0,weatherlink.com 1.10,2013-08-25 07:03:00,
2013-08-25 03:18:00,59.3,52.0,30.36,SW,225,0.0,2.0,77,0.00,,,0.00,0,weatherlink.com 1.10,2013-08-25 07:18:00,
2013-08-25 03:33:00,59.1,52.0,30.36,SW,225,2.0,2.0,78,0.00,,,0.00,0,weatherlink.com 1.10,2013-08-25 07:33:00,
2013-08-25 03:48:00,58.8,52.0,30.36,SW,225,0.0,2.0,79,0.00,,,0.00,0,weatherlink.com 1.10,2013-08-25 07:48:00,
2013-08-25 04:03:00,58.5,52.0,30.36,SW,225,1.0,2.0,80,0.00,,,0.00,0,weatherlink.com 1.10,2013-08-25 08:03:00,
2013-08-25 04:18:00,57.9,52.0,30.36,SW,225,1.0,1.0,81,0.00,,,0.00,0,weatherlink.com 1.10,2013-08-25 08:18:00,
2013-08-25 04:33:00,57.8,52.0,30.37,SW,225,0.0,1.0,82,0.00,,,0.00,0,weatherlink.com 1.10,2013-08-25 08:33:00,
2013-08-25 04:48:00,57.6,52.0,30.37,SW,225,0.0,1.0,82,0.00,,,0.00,0,weatherlink.com 1.10,2013-08-25 08:48:00,
2013-08-25 05:03:00,57.6,53.0,30.37,SW,225,0.0,2.0,83,0.00,,,0.00,0,weatherlink.com 1.10,2013-08-25 09:03:00,
2013-08-25 05:18:00,57.8,52.0,30.38,SW,225,0.0,2.0,82,0.00,,,0.00,0,weatherlink.com 1.10,2013-08-25 09:18:00,
2013-08-25 05:33:00,57.9,52.0,30.39,WNW,302,1.0,3.0,82,0.00,,,0.00,0,weatherlink.com 1.10,2013-08-25 09:33:00,
2013-08-25 05:48:00,58.6,52.0,30.39,NW,306,2.0,6.0,80,0.00,,,0.00,0,weatherlink.com 1.10,2013-08-25 09:48:00,
2013-08-25 06:03:00,58.7,53.0,30.40,NW,321,4.0,7.0,80,0.00,,,0.00,5,weatherlink.com 1.10,2013-08-25 10:03:00,
2013-08-25 06:18:00,58.5,52.0,30.40,NW,313,3.0,5.0,80,0.00,,,0.00,12,weatherlink.com 1.10,2013-08-25 10:18:00,
2013-08-25 06:33:00,58.5,52.0,30.41,NW,304,1.0,2.0,80,0.00,,,0.00,32,weatherlink.com 1.10,2013-08-25 10:33:00,
2013-08-25 06:48:00,58.9,53.0,30.41,NW,304,0.0,2.0,80,0.00,,,0.00,69,weatherlink.com 1.10,2013-08-25 10:48:00,
2013-08-25 07:03:00,59.7,53.0,30.41,NW,304,0.0,2.0,78,0.00,,,0.00,116,weatherlink.com 1.10,2013-08-25 11:03:00,
2013-08-25 07:18:00,60.7,53.0,30.42,NW,304,0.0,2.0,76,0.00,,,0.00,172,weatherlink.com 1.10,2013-08-25 11:18:00,
2013-08-25 07:33:00,62.5,54.0,30.42,NW,304,0.0,1.0,74,0.00,,,0.00,227,weatherlink.com 1.10,2013-08-25 11:33:00,
2013-08-25 07:48:00,65.2,55.0,30.41,NW,304,0.0,2.0,69,0.00,,,0.00,276,weatherlink.com 1.10,2013-08-25 11:48:00,
2013-08-25 08:03:00,65.5,54.0,30.42,NW,313,2.0,2.0,67,0.00,,,0.00,322,weatherlink.com 1.10,2013-08-25 12:03:00,
2013-08-25 08:19:00,65.9,55.0,30.42,NW,313,0.0,2.0,67,0.00,,,0.00,367,weatherlink.com 1.10,2013-08-25 12:19:00,
2013-08-25 08:34:00,67.5,55.0,30.42,ENE,72,1.0,3.0,65,0.00,,,0.00,415,weatherlink.com 1.10,2013-08-25 12:34:00,
2013-08-25 08:49:00,68.4,55.0,30.41,NNE,20,0.0,3.0,62,0.00,,,0.00,455,weatherlink.com 1.10,2013-08-25 12:49:00,
2013-08-25 09:04:00,69.9,54.0,30.41,NNE,30,3.0,4.0,58,0.00,,,0.00,501,weatherlink.com 1.10,2013-08-25 13:04:00,
2013-08-25 09:19:00,70.8,54.0,30.41,NNE,23,2.0,3.0,56,0.00,,,0.00,545,weatherlink.com 1.10,2013-08-25 13:19:00,
2013-08-25 09:34:00,71.3,55.0,30.41,WNW,284,2.0,3.0,56,0.00,,,0.00,585,weatherlink.com 1.10,2013-08-25 13:34:00,
2013-08-25 09:49:00,73.7,55.0,30.41,ESE,119,3.0,3.0,52,0.00,,,0.00,617,weatherlink.com 1.10,2013-08-25 13:49:00,
2013-08-25 10:04:00,75.0,54.0,30.42,ESE,103,1.0,4.0,48,0.00,,,0.00,650,weatherlink.com 1.10,2013-08-25 14:04:00,
2013-08-25 10:19:00,75.7,53.0,30.42,SE,136,2.0,5.0,46,0.00,,,0.00,682,weatherlink.com 1.10,2013-08-25 14:19:00,
2013-08-25 10:34:00,76.7,53.0,30.41,SE,129,2.0,5.0,44,0.00,,,0.00,715,weatherlink.com 1.10,2013-08-25 14:34:00,
2013-08-25 10:49:00,76.9,53.0,30.40,WNW,286,0.0,5.0,44,0.00,,,0.00,742,weatherlink.com 1.10,2013-08-25 14:49:00,
2013-08-25 11:04:00,77.7,53.0,30.40,SSW,192,1.0,7.0,42,0.00,,,0.00,766,weatherlink.com 1.10,2013-08-25 15:04:00,
2013-08-25 11:19:00,77.9,52.0,30.39,East,94,5.0,8.0,41,0.00,,,0.00,782,weatherlink.com 1.10,2013-08-25 15:19:00,
2013-08-25 11:34:00,78.5,52.0,30.38,SSE,157,6.0,8.0,40,0.00,,,0.00,803,weatherlink.com 1.10,2013-08-25 15:34:00,
2013-08-25 11:49:00,78.5,52.0,30.38,South,174,4.0,7.0,40,0.00,,,0.00,814,weatherlink.com 1.10,2013-08-25 15:49:00,
2013-08-25 12:05:00,79.2,51.0,30.36,ESE,108,3.0,8.0,38,0.00,,,0.00,828,weatherlink.com 1.10,2013-08-25 16:05:00,
2013-08-25 12:20:00,79.2,51.0,30.36,ESE,116,3.0,10.0,37,0.00,,,0.00,837,weatherlink.com 1.10,2013-08-25 16:20:00,
2013-08-25 12:35:00,79.3,51.0,30.36,East,101,6.0,10.0,37,0.00,,,0.00,844,weatherlink.com 1.10,2013-08-25 16:35:00,
2013-08-25 12:50:00,79.0,51.0,30.35,SE,138,6.0,10.0,38,0.00,,,0.00,831,weatherlink.com 1.10,2013-08-25 16:50:00,
2013-08-25 13:05:00,78.8,51.0,30.35,East,94,2.0,11.0,38,0.00,,,0.00,833,weatherlink.com 1.10,2013-08-25 17:05:00,
2013-08-25 13:20:00,79.3,51.0,30.34,SE,136,4.0,10.0,38,0.00,,,0.00,830,weatherlink.com 1.10,2013-08-25 17:20:00,
2013-08-25 13:35:00,79.8,52.0,30.34,SSE,163,2.0,11.0,38,0.00,,,0.00,824,weatherlink.com 1.10,2013-08-25 17:35:00,
2013-08-25 13:50:00,81.0,51.0,30.34,WSW,243,4.0,13.0,35,0.00,,,0.00,814,weatherlink.com 1.10,2013-08-25 17:50:00,
2013-08-25 14:05:00,82.2,50.0,30.34,West,263,1.0,8.0,32,0.00,,,0.00,798,weatherlink.com 1.10,2013-08-25 18:05:00,
2013-08-25 14:20:00,82.4,51.0,30.33,West,267,4.0,8.0,33,0.00,,,0.00,782,weatherlink.com 1.10,2013-08-25 18:20:00,
2013-08-25 14:35:00,82.9,51.0,30.32,SSW,212,2.0,8.0,33,0.00,,,0.00,758,weatherlink.com 1.10,2013-08-25 18:35:00,
2013-08-25 14:50:00,82.4,52.0,30.32,South,174,1.0,9.0,35,0.00,,,0.00,740,weatherlink.com 1.10,2013-08-25 18:50:00,
2013-08-25 15:05:00,83.2,52.0,30.32,WNW,284,4.0,6.0,34,0.00,,,0.00,705,weatherlink.com 1.10,2013-08-25 19:05:00,
2013-08-25 15:20:00,83.2,51.0,30.31,WSW,254,3.0,6.0,33,0.00,,,0.00,664,weatherlink.com 1.10,2013-08-25 19:20:00,
2013-08-25 15:35:00,83.0,52.0,30.31,SW,231,8.0,9.0,34,0.00,,,0.00,615,weatherlink.com 1.10,2013-08-25 19:35:00,
2013-08-25 15:50:00,83.1,53.0,30.30,WNW,283,3.0,11.0,35,0.00,,,0.00,592,weatherlink.com 1.10,2013-08-25 19:50:00,
2013-08-25 16:05:00,83.7,53.0,30.29,SW,229,5.0,9.0,35,0.00,,,0.00,552,weatherlink.com 1.10,2013-08-25 20:05:00,
2013-08-25 16:20:00,84.7,52.0,30.29,WNW,291,3.0,8.0,32,0.00,,,0.00,529,weatherlink.com 1.10,2013-08-25 20:20:00,
2013-08-25 16:35:00,83.7,48.0,30.29,WSW,246,5.0,11.0,29,0.00,,,0.00,471,weatherlink.com 1.10,2013-08-25 20:35:00,
2013-08-25 16:50:00,83.2,47.0,30.29,WNW,292,5.0,8.0,28,0.00,,,0.00,374,weatherlink.com 1.10,2013-08-25 20:50:00,
2013-08-25 17:05:00,82.8,46.0,30.29,West,279,5.0,7.0,28,0.00,,,0.00,267,weatherlink.com 1.10,2013-08-25 21:05:00,
2013-08-25 17:20:00,82.7,48.0,30.28,WSW,247,4.0,11.0,30,0.00,,,0.00,336,weatherlink.com 1.10,2013-08-25 21:20:00,
2013-08-25 17:35:00,83.0,49.0,30.27,West,281,5.0,11.0,31,0.00,,,0.00,276,weatherlink.com 1.10,2013-08-25 21:35:00,
2013-08-25 17:50:00,82.8,50.0,30.27,WNW,301,5.0,10.0,32,0.00,,,0.00,267,weatherlink.com 1.10,2013-08-25 21:50:00,
2013-08-25 18:05:00,82.2,50.0,30.27,WNW,296,4.0,9.0,33,0.00,,,0.00,193,weatherlink.com 1.10,2013-08-25 22:05:00,
2013-08-25 18:20:00,81.5,51.0,30.26,NW,304,5.0,11.0,34,0.00,,,0.00,149,weatherlink.com 1.10,2013-08-25 22:20:00,
2013-08-25 18:35:00,80.7,51.0,30.26,West,269,7.0,10.0,36,0.00,,,0.00,93,weatherlink.com 1.10,2013-08-25 22:35:00,
2013-08-25 18:50:00,80.0,51.0,30.25,NW,319,6.0,9.0,36,0.00,,,0.00,44,weatherlink.com 1.10,2013-08-25 22:50:00,
2013-08-25 19:05:00,79.1,51.0,30.25,West,267,3.0,7.0,37,0.00,,,0.00,14,weatherlink.com 1.10,2013-08-25 23:05:00,
2013-08-25 19:20:00,78.2,50.0,30.25,WSW,246,3.0,6.0,38,0.00,,,0.00,9,weatherlink.com 1.10,2013-08-25 23:20:00,
2013-08-25 19:35:00,77.7,51.0,30.25,WSW,252,1.0,6.0,39,0.00,,,0.00,0,weatherlink.com 1.10,2013-08-25 23:35:00,
2013-08-25 19:50:00,77.0,51.0,30.25,SW,221,2.0,3.0,40,0.00,,,0.00,0,weatherlink.com 1.10,2013-08-25 23:50:00,
2013-08-25 20:05:00,76.0,52.0,30.25,SSW,209,1.0,3.0,43,0.00,,,0.00,0,weatherlink.com 1.10,2013-08-26 00:05:00,
2013-08-25 20:20:00,75.3,53.0,30.25,SSW,204,0.0,2.0,46,0.00,,,0.00,0,weatherlink.com 1.10,2013-08-26 00:20:00,
2013-08-25 20:35:00,74.7,54.0,30.26,SW,226,1.0,5.0,48,0.00,,,0.00,0,weatherlink.com 1.10,2013-08-26 00:35:00,
2013-08-25 20:50:00,74.3,54.0,30.26,SW,224,2.0,7.0,49,0.00,,,0.00,0,weatherlink.com 1.10,2013-08-26 00:50:00,
2013-08-25 21:05:00,74.0,55.0,30.26,WSW,237,2.0,8.0,52,0.00,,,0.00,0,weatherlink.com 1.10,2013-08-26 01:05:00,
2013-08-25 21:20:00,73.4,56.0,30.26,WSW,248,1.0,8.0,54,0.00,,,0.00,0,weatherlink.com 1.10,2013-08-26 01:20:00,
2013-08-25 21:35:00,72.8,56.0,30.26,WNW,282,6.0,8.0,55,0.00,,,0.00,0,weatherlink.com 1.10,2013-08-26 01:35:00,
2013-08-25 21:50:00,72.2,55.0,30.26,West,276,9.0,9.0,56,0.00,,,0.00,0,weatherlink.com 1.10,2013-08-26 01:50:00,
2013-08-25 22:05:00,71.9,55.0,30.25,WSW,237,5.0,7.0,56,0.00,,,0.00,0,weatherlink.com 1.10,2013-08-26 02:05:00,
2013-08-25 22:20:00,71.5,55.0,30.25,WSW,257,3.0,8.0,57,0.00,,,0.00,0,weatherlink.com 1.10,2013-08-26 02:20:00,
2013-08-25 22:35:00,71.1,56.0,30.25,SSW,206,2.0,11.0,59,0.00,,,0.00,0,weatherlink.com 1.10,2013-08-26 02:35:00,
2013-08-25 22:50:00,70.8,56.0,30.25,SW,220,1.0,7.0,60,0.00,,,0.00,0,weatherlink.com 1.10,2013-08-26 02:50:00,
2013-08-25 23:05:00,70.5,56.0,30.25,SW,233,4.0,9.0,61,0.00,,,0.00,0,weatherlink.com 1.10,2013-08-26 03:05:00,
2013-08-25 23:20:00,70.2,56.0,30.25,West,265,3.0,8.0,62,0.00,,,0.00,0,weatherlink.com 1.10,2013-08-26 03:20:00,
2013-08-25 23:36:00,70.0,57.0,30.25,WNW,298,2.0,7.0,63,0.00,,,0.00,0,weatherlink.com 1.10,2013-08-26 03:36:00,
2013-08-25 23:51:00,69.7,57.0,30.24,West,276,1.0,5.0,64,0.00,,,0.00,0,weatherlink.com 1.10,2013-08-26 03:51:00,